sensor_id;sensor_type;location;lat;lon;timestamp;pressure;altitude;pressure_sealevel;temperature;humidity
8294;BME280;4185;41.506;24.938;2022-10-31T00:02:20;93912.34;;;7.61;70.53
8294;BME280;4185;41.506;24.938;2022-10-31T00:04:47;93903.25;;;7.50;71.19
8294;BME280;4185;41.506;24.938;2022-10-31T00:07:13;93907.16;;;7.49;71.51
8294;BME280;4185;41.506;24.938;2022-10-31T00:09:40;93904.59;;;7.54;71.18
8294;BME280;4185;41.506;24.938;2022-10-31T00:12:07;93903.34;;;7.64;70.97
8294;BME280;4185;41.506;24.938;2022-10-31T00:14:34;93898.50;;;7.68;70.89
8294;BME280;4185;41.506;24.938;2022-10-31T00:17:01;93900.75;;;7.70;71.49
8294;BME280;4185;41.506;24.938;2022-10-31T00:19:29;93904.84;;;7.65;71.68
8294;BME280;4185;41.506;24.938;2022-10-31T00:21:56;93902.47;;;7.58;72.25
8294;BME280;4185;41.506;24.938;2022-10-31T00:24:23;93896.03;;;7.56;71.52
8294;BME280;4185;41.506;24.938;2022-10-31T00:26:50;93889.69;;;7.59;71.33
8294;BME280;4185;41.506;24.938;2022-10-31T00:29:16;93892.41;;;7.59;71.89
8294;BME280;4185;41.506;24.938;2022-10-31T00:31:43;93886.69;;;7.57;72.01
8294;BME280;4185;41.506;24.938;2022-10-31T00:34:10;93885.94;;;7.56;71.32
8294;BME280;4185;41.506;24.938;2022-10-31T00:36:38;93887.03;;;7.50;71.87
8294;BME280;4185;41.506;24.938;2022-10-31T00:39:05;93887.78;;;7.50;72.50
8294;BME280;4185;41.506;24.938;2022-10-31T00:41:32;93885.53;;;7.49;72.40
8294;BME280;4185;41.506;24.938;2022-10-31T00:43:58;93884.78;;;7.48;72.18
8294;BME280;4185;41.506;24.938;2022-10-31T00:46:25;93886.72;;;7.47;72.06
8294;BME280;4185;41.506;24.938;2022-10-31T00:48:52;93888.25;;;7.39;72.03
8294;BME280;4185;41.506;24.938;2022-10-31T00:51:19;93892.78;;;7.33;72.50
8294;BME280;4185;41.506;24.938;2022-10-31T00:53:47;93881.53;;;7.26;72.84
8294;BME280;4185;41.506;24.938;2022-10-31T00:56:14;93895.22;;;7.22;72.75
8294;BME280;4185;41.506;24.938;2022-10-31T00:58:40;93896.13;;;7.10;72.93
8294;BME280;4185;41.506;24.938;2022-10-31T01:01:07;93892.56;;;7.13;72.85
8294;BME280;4185;41.506;24.938;2022-10-31T01:03:34;93886.53;;;7.09;73.17
8294;BME280;4185;41.506;24.938;2022-10-31T01:06:05;93888.06;;;7.01;72.97
8294;BME280;4185;41.506;24.938;2022-10-31T01:08:33;93883.28;;;6.96;73.14
8294;BME280;4185;41.506;24.938;2022-10-31T01:11:05;93890.16;;;6.97;73.01
8294;BME280;4185;41.506;24.938;2022-10-31T01:13:32;93887.16;;;6.95;73.63
8294;BME280;4185;41.506;24.938;2022-10-31T01:16:00;93878.59;;;6.97;73.37
8294;BME280;4185;41.506;24.938;2022-10-31T01:18:27;93882.66;;;6.92;73.51
8294;BME280;4185;41.506;24.938;2022-10-31T01:20:58;93890.47;;;6.90;74.63
8294;BME280;4185;41.506;24.938;2022-10-31T01:23:26;93884.00;;;6.97;73.92
8294;BME280;4185;41.506;24.938;2022-10-31T01:26:05;93888.06;;;7.01;74.17
8294;BME280;4185;41.506;24.938;2022-10-31T01:28:32;93876.97;;;6.90;73.92
8294;BME280;4185;41.506;24.938;2022-10-31T01:31:05;93884.50;;;6.86;74.56
8294;BME280;4185;41.506;24.938;2022-10-31T01:33:32;93876.09;;;6.84;74.41
8294;BME280;4185;41.506;24.938;2022-10-31T01:35:59;93878.47;;;6.91;74.45
8294;BME280;4185;41.506;24.938;2022-10-31T01:38:26;93874.41;;;6.87;74.23
8294;BME280;4185;41.506;24.938;2022-10-31T01:40:52;93874.28;;;6.81;74.37
8294;BME280;4185;41.506;24.938;2022-10-31T01:43:21;93874.91;;;6.76;73.90
8294;BME280;4185;41.506;24.938;2022-10-31T01:45:51;93869.50;;;6.76;74.86
8294;BME280;4185;41.506;24.938;2022-10-31T01:48:24;93867.69;;;6.73;74.83
8294;BME280;4185;41.506;24.938;2022-10-31T01:50:54;93870.41;;;6.64;74.51
8294;BME280;4185;41.506;24.938;2022-10-31T01:53:22;93877.28;;;6.65;74.89
8294;BME280;4185;41.506;24.938;2022-10-31T01:55:50;93874.75;;;6.62;76.03
8294;BME280;4185;41.506;24.938;2022-10-31T01:58:21;93873.72;;;6.50;76.53
8294;BME280;4185;41.506;24.938;2022-10-31T02:00:52;93861.88;;;6.39;75.60
8294;BME280;4185;41.506;24.938;2022-10-31T02:03:22;93865.91;;;6.34;76.82
8294;BME280;4185;41.506;24.938;2022-10-31T02:05:49;93870.41;;;6.37;77.31
8294;BME280;4185;41.506;24.938;2022-10-31T02:08:19;93871.59;;;6.36;77.54
8294;BME280;4185;41.506;24.938;2022-10-31T02:10:48;93879.41;;;6.43;76.37
8294;BME280;4185;41.506;24.938;2022-10-31T02:13:15;93876.25;;;6.45;76.22
8294;BME280;4185;41.506;24.938;2022-10-31T02:15:45;93878.81;;;6.39;76.18
8294;BME280;4185;41.506;24.938;2022-10-31T02:18:13;93877.00;;;6.36;76.13
8294;BME280;4185;41.506;24.938;2022-10-31T02:20:47;93873.09;;;6.37;75.99
8294;BME280;4185;41.506;24.938;2022-10-31T02:23:36;93878.50;;;6.37;76.52
8294;BME280;4185;41.506;24.938;2022-10-31T02:26:26;93873.56;;;6.36;76.86
8294;BME280;4185;41.506;24.938;2022-10-31T02:29:15;93879.41;;;6.43;76.79
8294;BME280;4185;41.506;24.938;2022-10-31T02:31:47;93884.06;;;6.43;76.62
8294;BME280;4185;41.506;24.938;2022-10-31T02:34:23;93889.75;;;6.36;77.00
8294;BME280;4185;41.506;24.938;2022-10-31T02:36:56;93886.59;;;6.37;76.68
8294;BME280;4185;41.506;24.938;2022-10-31T02:39:26;93890.47;;;6.36;76.97
8294;BME280;4185;41.506;24.938;2022-10-31T02:42:02;93892.91;;;6.34;76.80
8294;BME280;4185;41.506;24.938;2022-10-31T02:44:36;93882.25;;;6.40;76.73
8294;BME280;4185;41.506;24.938;2022-10-31T02:47:08;93894.38;;;6.35;77.28
8294;BME280;4185;41.506;24.938;2022-10-31T02:49:42;93901.00;;;6.34;76.58
8294;BME280;4185;41.506;24.938;2022-10-31T02:52:19;93894.97;;;6.30;76.72
8294;BME280;4185;41.506;24.938;2022-10-31T02:54:47;93899.16;;;6.31;77.33
8294;BME280;4185;41.506;24.938;2022-10-31T02:57:16;93904.28;;;6.29;77.64
8294;BME280;4185;41.506;24.938;2022-10-31T02:59:46;93906.97;;;6.38;77.82
8294;BME280;4185;41.506;24.938;2022-10-31T03:02:32;93908.78;;;6.41;77.97
8294;BME280;4185;41.506;24.938;2022-10-31T03:05:14;93903.09;;;6.48;77.54
8294;BME280;4185;41.506;24.938;2022-10-31T03:07:53;93908.47;;;6.48;77.82
8294;BME280;4185;41.506;24.938;2022-10-31T03:10:31;93909.53;;;6.42;77.92
8294;BME280;4185;41.506;24.938;2022-10-31T03:13:07;93902.16;;;6.33;78.12
8294;BME280;4185;41.506;24.938;2022-10-31T03:15:38;93894.06;;;6.24;79.09
8294;BME280;4185;41.506;24.938;2022-10-31T03:18:12;93897.22;;;6.22;78.10
8294;BME280;4185;41.506;24.938;2022-10-31T03:20:44;93889.28;;;6.28;79.01
8294;BME280;4185;41.506;24.938;2022-10-31T03:23:16;93910.56;;;6.35;80.49
8294;BME280;4185;41.506;24.938;2022-10-31T03:25:44;93897.69;;;6.30;80.13
8294;BME280;4185;41.506;24.938;2022-10-31T03:28:15;93908.91;;;6.29;79.99
8294;BME280;4185;41.506;24.938;2022-10-31T03:30:45;93908.47;;;6.30;79.08
8294;BME280;4185;41.506;24.938;2022-10-31T03:33:17;93907.28;;;6.40;78.84
8294;BME280;4185;41.506;24.938;2022-10-31T03:35:47;93908.34;;;6.43;78.74
8294;BME280;4185;41.506;24.938;2022-10-31T03:38:18;93909.25;;;6.49;78.74
8294;BME280;4185;41.506;24.938;2022-10-31T03:40:46;93915.66;;;6.51;78.92
8294;BME280;4185;41.506;24.938;2022-10-31T03:43:16;93910.72;;;6.50;79.03
8294;BME280;4185;41.506;24.938;2022-10-31T03:45:45;93910.28;;;6.51;79.22
8294;BME280;4185;41.506;24.938;2022-10-31T03:48:16;93911.47;;;6.50;79.60
8294;BME280;4185;41.506;24.938;2022-10-31T03:50:51;93909.09;;;6.52;79.61
8294;BME280;4185;41.506;24.938;2022-10-31T03:53:22;93912.09;;;6.54;79.42
8294;BME280;4185;41.506;24.938;2022-10-31T03:55:53;93918.81;;;6.50;80.18
8294;BME280;4185;41.506;24.938;2022-10-31T03:58:27;93909.06;;;6.43;80.49
8294;BME280;4185;41.506;24.938;2022-10-31T04:00:57;93909.66;;;6.38;81.30
8294;BME280;4185;41.506;24.938;2022-10-31T04:03:30;93905.19;;;6.35;80.47
8294;BME280;4185;41.506;24.938;2022-10-31T04:06:02;93909.38;;;6.45;81.08
8294;BME280;4185;41.506;24.938;2022-10-31T04:08:33;93905.47;;;6.46;80.89
8294;BME280;4185;41.506;24.938;2022-10-31T04:11:04;93914.31;;;6.47;80.67
8294;BME280;4185;41.506;24.938;2022-10-31T04:13:33;93914.31;;;6.47;81.43
8294;BME280;4185;41.506;24.938;2022-10-31T04:16:04;93910.88;;;6.46;80.63
8294;BME280;4185;41.506;24.938;2022-10-31T04:18:32;93917.47;;;6.45;80.66
8294;BME280;4185;41.506;24.938;2022-10-31T04:21:01;93923.91;;;6.39;81.36
8294;BME280;4185;41.506;24.938;2022-10-31T04:23:28;93920.47;;;6.38;80.67
8294;BME280;4185;41.506;24.938;2022-10-31T04:25:55;93919.28;;;6.39;80.71
8294;BME280;4185;41.506;24.938;2022-10-31T04:28:22;93929.47;;;6.44;80.42
8294;BME280;4185;41.506;24.938;2022-10-31T04:30:49;93923.47;;;6.49;79.30
8294;BME280;4185;41.506;24.938;2022-10-31T04:33:16;93928.28;;;6.54;79.83
8294;BME280;4185;41.506;24.938;2022-10-31T04:35:44;93930.22;;;6.54;79.38
8294;BME280;4185;41.506;24.938;2022-10-31T04:38:11;93930.50;;;6.47;80.16
8294;BME280;4185;41.506;24.938;2022-10-31T04:40:38;93919.88;;;6.43;79.61
8294;BME280;4185;41.506;24.938;2022-10-31T04:43:05;93921.06;;;6.42;79.59
8294;BME280;4185;41.506;24.938;2022-10-31T04:45:31;93932.78;;;6.39;80.22
8294;BME280;4185;41.506;24.938;2022-10-31T04:47:58;93926.31;;;6.37;80.48
8294;BME280;4185;41.506;24.938;2022-10-31T04:50:25;93936.22;;;6.31;80.46
8294;BME280;4185;41.506;24.938;2022-10-31T04:52:53;93941.75;;;6.36;80.71
8294;BME280;4185;41.506;24.938;2022-10-31T04:55:20;93942.50;;;6.37;81.07
8294;BME280;4185;41.506;24.938;2022-10-31T04:57:48;93944.44;;;6.36;79.45
8294;BME280;4185;41.506;24.938;2022-10-31T05:00:17;93948.97;;;6.39;79.53
8294;BME280;4185;41.506;24.938;2022-10-31T05:02:45;93949.84;;;6.36;79.73
8294;BME280;4185;41.506;24.938;2022-10-31T05:05:13;93952.84;;;6.38;79.59
8294;BME280;4185;41.506;24.938;2022-10-31T05:07:40;93955.88;;;6.49;79.36
8294;BME280;4185;41.506;24.938;2022-10-31T05:10:09;93960.38;;;6.52;81.43
8294;BME280;4185;41.506;24.938;2022-10-31T05:12:36;93951.97;;;6.50;81.09
8294;BME280;4185;41.506;24.938;2022-10-31T05:15:04;93957.63;;;6.43;81.33
8294;BME280;4185;41.506;24.938;2022-10-31T05:17:31;93957.06;;;6.48;80.72
8294;BME280;4185;41.506;24.938;2022-10-31T05:19:59;93964.69;;;6.50;81.70
8294;BME280;4185;41.506;24.938;2022-10-31T05:22:25;93957.66;;;6.52;81.95
8294;BME280;4185;41.506;24.938;2022-10-31T05:24:52;93958.13;;;6.51;81.90
8294;BME280;4185;41.506;24.938;2022-10-31T05:27:20;93968.75;;;6.45;81.77
8294;BME280;4185;41.506;24.938;2022-10-31T05:29:47;93975.03;;;6.51;81.77
8294;BME280;4185;41.506;24.938;2022-10-31T05:32:14;93975.66;;;6.55;81.58
8294;BME280;4185;41.506;24.938;2022-10-31T05:34:41;93974.75;;;6.58;82.05
8294;BME280;4185;41.506;24.938;2022-10-31T05:37:08;93983.47;;;6.62;81.59
8294;BME280;4185;41.506;24.938;2022-10-31T05:39:34;93977.16;;;6.65;81.75
8294;BME280;4185;41.506;24.938;2022-10-31T05:42:01;93981.38;;;6.75;80.46
8294;BME280;4185;41.506;24.938;2022-10-31T05:44:30;93979.13;;;6.74;80.33
8294;BME280;4185;41.506;24.938;2022-10-31T05:46:56;93984.97;;;6.72;81.33
8294;BME280;4185;41.506;24.938;2022-10-31T05:49:23;93988.44;;;6.73;80.84
8294;BME280;4185;41.506;24.938;2022-10-31T05:51:50;93989.31;;;6.70;80.89
8294;BME280;4185;41.506;24.938;2022-10-31T05:54:17;93987.53;;;6.76;81.34
8294;BME280;4185;41.506;24.938;2022-10-31T05:56:43;93984.09;;;6.84;80.51
8294;BME280;4185;41.506;24.938;2022-10-31T05:59:10;93992.19;;;6.93;79.57
8294;BME280;4185;41.506;24.938;2022-10-31T06:01:38;93994.88;;;7.02;80.18
8294;BME280;4185;41.506;24.938;2022-10-31T06:04:05;93997.75;;;7.08;79.82
8294;BME280;4185;41.506;24.938;2022-10-31T06:06:32;94001.31;;;7.14;81.31
8294;BME280;4185;41.506;24.938;2022-10-31T06:08:59;94005.84;;;7.17;81.22
8294;BME280;4185;41.506;24.938;2022-10-31T06:11:26;94008.09;;;7.18;80.90
8294;BME280;4185;41.506;24.938;2022-10-31T06:13:52;94001.03;;;7.21;80.57
8294;BME280;4185;41.506;24.938;2022-10-31T06:16:19;94015.59;;;7.23;80.59
8294;BME280;4185;41.506;24.938;2022-10-31T06:18:47;94013.63;;;7.24;80.92
8294;BME280;4185;41.506;24.938;2022-10-31T06:21:14;94019.34;;;7.26;80.93
8294;BME280;4185;41.506;24.938;2022-10-31T06:23:41;94020.72;;;7.30;80.58
8294;BME280;4185;41.506;24.938;2022-10-31T06:26:08;94008.69;;;7.40;80.06
8294;BME280;4185;41.506;24.938;2022-10-31T06:28:34;94011.66;;;7.52;80.25
8294;BME280;4185;41.506;24.938;2022-10-31T06:31:01;94017.22;;;7.57;80.44
8294;BME280;4185;41.506;24.938;2022-10-31T06:33:28;94017.06;;;7.61;80.93
8294;BME280;4185;41.506;24.938;2022-10-31T06:35:56;94022.31;;;7.64;80.29
8294;BME280;4185;41.506;24.938;2022-10-31T06:38:25;94023.66;;;7.69;80.06
8294;BME280;4185;41.506;24.938;2022-10-31T06:40:51;94011.34;;;7.68;80.21
8294;BME280;4185;41.506;24.938;2022-10-31T06:43:18;94017.94;;;7.76;80.75
8294;BME280;4185;41.506;24.938;2022-10-31T06:45:45;94020.59;;;7.85;80.45
8294;BME280;4185;41.506;24.938;2022-10-31T06:48:13;94021.31;;;7.94;80.68
8294;BME280;4185;41.506;24.938;2022-10-31T06:50:39;94026.72;;;8.03;79.67
8294;BME280;4185;41.506;24.938;2022-10-31T06:53:07;94018.84;;;8.14;79.48
8294;BME280;4185;41.506;24.938;2022-10-31T06:55:34;94027.25;;;8.25;79.17
8294;BME280;4185;41.506;24.938;2022-10-31T06:58:01;94019.84;;;8.35;79.08
8294;BME280;4185;41.506;24.938;2022-10-31T07:00:30;94021.78;;;8.43;79.05
8294;BME280;4185;41.506;24.938;2022-10-31T07:02:58;94020.50;;;8.53;78.29
8294;BME280;4185;41.506;24.938;2022-10-31T07:05:25;94013.66;;;8.67;78.26
8294;BME280;4185;41.506;24.938;2022-10-31T07:07:53;94003.97;;;8.75;78.22
8294;BME280;4185;41.506;24.938;2022-10-31T07:10:22;93996.16;;;8.77;77.53
8294;BME280;4185;41.506;24.938;2022-10-31T07:12:54;94009.44;;;8.90;77.40
8294;BME280;4185;41.506;24.938;2022-10-31T07:15:21;94001.84;;;9.03;77.24
8294;BME280;4185;41.506;24.938;2022-10-31T07:17:47;93999.44;;;9.19;76.65
8294;BME280;4185;41.506;24.938;2022-10-31T07:20:14;94005.66;;;9.34;76.43
8294;BME280;4185;41.506;24.938;2022-10-31T07:22:41;93998.84;;;9.53;75.57
8294;BME280;4185;41.506;24.938;2022-10-31T07:25:09;93991.00;;;9.70;74.56
8294;BME280;4185;41.506;24.938;2022-10-31T07:27:37;93989.31;;;9.87;74.26
8294;BME280;4185;41.506;24.938;2022-10-31T07:30:06;93999.22;;;10.05;72.80
8294;BME280;4185;41.506;24.938;2022-10-31T07:32:38;94000.06;;;10.25;72.40
8294;BME280;4185;41.506;24.938;2022-10-31T07:35:06;93989.91;;;10.40;71.72
8294;BME280;4185;41.506;24.938;2022-10-31T07:37:33;93985.00;;;10.59;71.69
8294;BME280;4185;41.506;24.938;2022-10-31T07:40:00;93988.69;;;10.76;71.18
8294;BME280;4185;41.506;24.938;2022-10-31T07:42:27;93993.59;;;10.92;71.05
8294;BME280;4185;41.506;24.938;2022-10-31T07:44:55;93996.44;;;11.03;70.09
8294;BME280;4185;41.506;24.938;2022-10-31T07:47:22;93989.72;;;11.19;70.29
8294;BME280;4185;41.506;24.938;2022-10-31T07:49:49;93988.91;;;11.38;68.93
8294;BME280;4185;41.506;24.938;2022-10-31T07:52:15;93985.22;;;11.61;67.91
8294;BME280;4185;41.506;24.938;2022-10-31T07:54:42;93980.22;;;11.80;68.26
8294;BME280;4185;41.506;24.938;2022-10-31T07:57:09;93977.69;;;12.02;67.40
8294;BME280;4185;41.506;24.938;2022-10-31T07:59:36;93978.88;;;12.26;66.02
8294;BME280;4185;41.506;24.938;2022-10-31T08:02:04;93971.13;;;12.51;65.10
8294;BME280;4185;41.506;24.938;2022-10-31T08:04:31;93974.59;;;12.51;65.61
8294;BME280;4185;41.506;24.938;2022-10-31T08:06:58;93974.47;;;12.71;64.81
8294;BME280;4185;41.506;24.938;2022-10-31T08:09:25;93972.91;;;13.01;64.20
8294;BME280;4185;41.506;24.938;2022-10-31T08:11:52;93965.78;;;13.26;63.17
8294;BME280;4185;41.506;24.938;2022-10-31T08:14:19;93967.81;;;13.36;63.43
8294;BME280;4185;41.506;24.938;2022-10-31T08:16:46;93964.13;;;13.45;63.42
8294;BME280;4185;41.506;24.938;2022-10-31T08:19:14;93960.69;;;13.72;61.66
8294;BME280;4185;41.506;24.938;2022-10-31T08:21:41;93958.75;;;14.00;62.14
8294;BME280;4185;41.506;24.938;2022-10-31T08:24:08;93961.25;;;14.20;61.16
8294;BME280;4185;41.506;24.938;2022-10-31T08:26:35;93964.25;;;14.33;61.63
8294;BME280;4185;41.506;24.938;2022-10-31T08:29:02;93959.75;;;14.41;60.61
8294;BME280;4185;41.506;24.938;2022-10-31T08:31:29;93964.22;;;14.55;60.49
8294;BME280;4185;41.506;24.938;2022-10-31T08:33:56;93968.91;;;14.66;60.33
8294;BME280;4185;41.506;24.938;2022-10-31T08:36:24;93962.66;;;14.77;60.05
8294;BME280;4185;41.506;24.938;2022-10-31T08:38:51;93964.38;;;14.96;59.30
8294;BME280;4185;41.506;24.938;2022-10-31T08:41:18;93961.78;;;15.20;58.30
8294;BME280;4185;41.506;24.938;2022-10-31T08:43:45;93972.91;;;15.39;57.52
8294;BME280;4185;41.506;24.938;2022-10-31T08:46:12;93962.75;;;15.80;56.76
8294;BME280;4185;41.506;24.938;2022-10-31T08:48:39;93965.25;;;16.13;54.76
8294;BME280;4185;41.506;24.938;2022-10-31T08:51:05;93960.84;;;16.34;54.76
8294;BME280;4185;41.506;24.938;2022-10-31T08:53:34;93967.59;;;16.63;52.94
8294;BME280;4185;41.506;24.938;2022-10-31T08:56:01;93967.56;;;16.92;51.88
8294;BME280;4185;41.506;24.938;2022-10-31T08:58:28;93974.19;;;17.02;52.66
8294;BME280;4185;41.506;24.938;2022-10-31T09:00:55;93972.25;;;16.97;52.37
8294;BME280;4185;41.506;24.938;2022-10-31T09:03:23;93978.69;;;17.43;49.89
8294;BME280;4185;41.506;24.938;2022-10-31T09:05:54;93979.63;;;17.69;49.77
8294;BME280;4185;41.506;24.938;2022-10-31T09:08:21;93975.22;;;17.98;48.56
8294;BME280;4185;41.506;24.938;2022-10-31T09:10:49;93968.53;;;18.12;48.84
8294;BME280;4185;41.506;24.938;2022-10-31T09:13:17;93971.78;;;18.29;47.58
8294;BME280;4185;41.506;24.938;2022-10-31T09:15:46;93971.00;;;18.79;46.55
8294;BME280;4185;41.506;24.938;2022-10-31T09:18:16;93972.91;;;19.10;45.29
8294;BME280;4185;41.506;24.938;2022-10-31T09:20:44;93954.19;;;19.34;44.68
8294;BME280;4185;41.506;24.938;2022-10-31T09:23:14;93970.28;;;19.57;44.96
8294;BME280;4185;41.506;24.938;2022-10-31T09:25:41;93966.34;;;19.52;45.73
8294;BME280;4185;41.506;24.938;2022-10-31T09:28:11;93969.84;;;19.53;46.16
8294;BME280;4185;41.506;24.938;2022-10-31T09:30:38;93967.94;;;19.48;45.81
8294;BME280;4185;41.506;24.938;2022-10-31T09:33:08;93969.09;;;19.65;44.43
8294;BME280;4185;41.506;24.938;2022-10-31T09:35:35;93965.66;;;19.72;45.66
8294;BME280;4185;41.506;24.938;2022-10-31T09:38:04;93955.50;;;20.01;43.94
8294;BME280;4185;41.506;24.938;2022-10-31T09:40:34;93962.44;;;20.28;41.88
8294;BME280;4185;41.506;24.938;2022-10-31T09:43:11;93957.47;;;20.47;41.35
8294;BME280;4185;41.506;24.938;2022-10-31T09:45:46;93968.56;;;20.34;41.60
8294;BME280;4185;41.506;24.938;2022-10-31T09:51:08;93967.72;;;20.59;40.56
8294;BME280;4185;41.506;24.938;2022-10-31T09:53:44;93963.31;;;20.64;38.81
8294;BME280;4185;41.506;24.938;2022-10-31T09:56:16;93968.28;;;20.45;39.18
8294;BME280;4185;41.506;24.938;2022-10-31T09:58:47;93960.28;;;20.75;38.04
8294;BME280;4185;41.506;24.938;2022-10-31T10:01:30;93965.53;;;21.07;37.78
8294;BME280;4185;41.506;24.938;2022-10-31T10:04:02;93962.31;;;21.23;38.37
8294;BME280;4185;41.506;24.938;2022-10-31T10:06:34;93964.19;;;21.28;38.03
8294;BME280;4185;41.506;24.938;2022-10-31T10:09:05;93970.38;;;21.21;36.99
8294;BME280;4185;41.506;24.938;2022-10-31T10:11:47;93969.84;;;21.51;36.63
8294;BME280;4185;41.506;24.938;2022-10-31T10:14:28;93967.03;;;21.43;36.43
8294;BME280;4185;41.506;24.938;2022-10-31T10:17:14;93962.63;;;21.12;36.96
8294;BME280;4185;41.506;24.938;2022-10-31T10:20:00;93961.59;;;21.02;37.59
8294;BME280;4185;41.506;24.938;2022-10-31T10:22:37;93964.19;;;21.00;38.24
8294;BME280;4185;41.506;24.938;2022-10-31T10:25:26;93968.41;;;21.01;37.25
8294;BME280;4185;41.506;24.938;2022-10-31T10:28:06;93960.66;;;21.28;38.25
8294;BME280;4185;41.506;24.938;2022-10-31T10:30:40;93962.94;;;21.72;35.24
8294;BME280;4185;41.506;24.938;2022-10-31T10:33:13;93954.56;;;22.01;35.13
8294;BME280;4185;41.506;24.938;2022-10-31T10:35:45;93948.00;;;22.19;34.73
8294;BME280;4185;41.506;24.938;2022-10-31T10:38:21;93944.13;;;22.37;34.66
8294;BME280;4185;41.506;24.938;2022-10-31T10:40:52;93939.00;;;22.41;34.55
8294;BME280;4185;41.506;24.938;2022-10-31T10:43:24;93943.59;;;22.46;34.19
8294;BME280;4185;41.506;24.938;2022-10-31T10:46:03;93938.97;;;22.48;34.51
8294;BME280;4185;41.506;24.938;2022-10-31T10:48:55;93942.53;;;22.79;33.51
8294;BME280;4185;41.506;24.938;2022-10-31T10:51:27;93942.13;;;22.52;33.41
8294;BME280;4185;41.506;24.938;2022-10-31T10:54:11;93945.69;;;22.68;32.67
8294;BME280;4185;41.506;24.938;2022-10-31T10:56:48;93934.94;;;22.87;32.85
8294;BME280;4185;41.506;24.938;2022-10-31T10:59:19;93937.34;;;22.98;33.23
8294;BME280;4185;41.506;24.938;2022-10-31T11:01:51;93924.00;;;23.27;32.87
8294;BME280;4185;41.506;24.938;2022-10-31T11:04:26;93940.25;;;23.45;31.91
8294;BME280;4185;41.506;24.938;2022-10-31T11:06:57;93945.94;;;23.62;31.93
8294;BME280;4185;41.506;24.938;2022-10-31T11:09:24;93926.91;;;23.59;31.61
8294;BME280;4185;41.506;24.938;2022-10-31T11:11:51;93934.09;;;23.54;31.01
8294;BME280;4185;41.506;24.938;2022-10-31T11:14:18;93927.41;;;23.65;31.62
8294;BME280;4185;41.506;24.938;2022-10-31T11:16:51;93929.03;;;23.83;31.36
8294;BME280;4185;41.506;24.938;2022-10-31T11:19:21;93924.13;;;24.06;32.01
8294;BME280;4185;41.506;24.938;2022-10-31T11:21:49;93925.47;;;24.30;32.39
8294;BME280;4185;41.506;24.938;2022-10-31T11:24:17;93921.44;;;24.48;31.97
8294;BME280;4185;41.506;24.938;2022-10-31T11:26:46;93926.81;;;24.46;31.19
8294;BME280;4185;41.506;24.938;2022-10-31T11:29:15;93937.50;;;24.57;30.51
8294;BME280;4185;41.506;24.938;2022-10-31T11:31:44;93919.16;;;24.29;30.34
8294;BME280;4185;41.506;24.938;2022-10-31T11:34:24;93915.63;;;24.61;30.19
8294;BME280;4185;41.506;24.938;2022-10-31T11:36:52;93924.06;;;24.95;31.21
8294;BME280;4185;41.506;24.938;2022-10-31T11:39:21;93922.94;;;24.98;28.92
8294;BME280;4185;41.506;24.938;2022-10-31T11:41:50;93928.69;;;24.75;28.83
8294;BME280;4185;41.506;24.938;2022-10-31T11:44:20;93928.34;;;24.15;31.63
8294;BME280;4185;41.506;24.938;2022-10-31T11:46:50;93943.19;;;24.02;30.73
8294;BME280;4185;41.506;24.938;2022-10-31T11:49:23;93940.69;;;24.78;29.93
8294;BME280;4185;41.506;24.938;2022-10-31T11:51:54;93923.38;;;24.62;29.53
8294;BME280;4185;41.506;24.938;2022-10-31T11:54:24;93929.94;;;24.82;29.40
8294;BME280;4185;41.506;24.938;2022-10-31T11:56:53;93936.19;;;25.07;29.29
8294;BME280;4185;41.506;24.938;2022-10-31T11:59:25;93929.41;;;25.17;30.33
8294;BME280;4185;41.506;24.938;2022-10-31T12:01:54;93934.94;;;25.42;29.06
8294;BME280;4185;41.506;24.938;2022-10-31T12:04:32;93925.19;;;25.85;28.45
8294;BME280;4185;41.506;24.938;2022-10-31T12:07:01;93930.09;;;25.77;28.05
8294;BME280;4185;41.506;24.938;2022-10-31T12:09:29;93929.34;;;26.10;27.71
8294;BME280;4185;41.506;24.938;2022-10-31T12:12:24;93923.78;;;26.10;28.76
8294;BME280;4185;41.506;24.938;2022-10-31T12:15:02;93922.31;;;26.36;28.51
8294;BME280;4185;41.506;24.938;2022-10-31T12:17:36;93931.09;;;26.06;27.91
8294;BME280;4185;41.506;24.938;2022-10-31T12:20:16;93934.94;;;25.59;28.59
8294;BME280;4185;41.506;24.938;2022-10-31T12:22:52;93932.31;;;25.78;28.70
8294;BME280;4185;41.506;24.938;2022-10-31T12:25:30;93927.19;;;26.01;28.49
8294;BME280;4185;41.506;24.938;2022-10-31T12:28:17;93929.66;;;26.14;28.18
8294;BME280;4185;41.506;24.938;2022-10-31T12:30:56;93933.91;;;25.98;27.83
8294;BME280;4185;41.506;24.938;2022-10-31T12:33:36;93924.41;;;26.18;28.87
8294;BME280;4185;41.506;24.938;2022-10-31T12:36:23;93914.31;;;26.50;27.39
8294;BME280;4185;41.506;24.938;2022-10-31T12:39:06;93913.16;;;26.53;28.02
8294;BME280;4185;41.506;24.938;2022-10-31T12:41:45;93917.94;;;26.69;27.71
8294;BME280;4185;41.506;24.938;2022-10-31T12:44:36;93913.13;;;26.79;27.62
8294;BME280;4185;41.506;24.938;2022-10-31T12:47:25;93921.81;;;26.83;27.55
8294;BME280;4185;41.506;24.938;2022-10-31T12:50:01;93919.97;;;27.14;27.18
8294;BME280;4185;41.506;24.938;2022-10-31T12:52:43;93919.50;;;26.99;27.89
8294;BME280;4185;41.506;24.938;2022-10-31T12:55:26;93926.53;;;27.00;28.16
8294;BME280;4185;41.506;24.938;2022-10-31T12:57:59;93916.13;;;27.00;27.27
8294;BME280;4185;41.506;24.938;2022-10-31T13:00:28;93927.38;;;26.30;28.30
8294;BME280;4185;41.506;24.938;2022-10-31T13:03:01;93923.34;;;26.40;28.21
8294;BME280;4185;41.506;24.938;2022-10-31T13:05:34;93933.97;;;26.88;27.03
8294;BME280;4185;41.506;24.938;2022-10-31T13:08:06;93931.66;;;26.94;26.26
8294;BME280;4185;41.506;24.938;2022-10-31T13:10:40;93928.22;;;27.22;26.23
8294;BME280;4185;41.506;24.938;2022-10-31T13:13:18;93936.69;;;27.98;25.39
8294;BME280;4185;41.506;24.938;2022-10-31T13:15:48;93936.59;;;29.47;24.53
8294;BME280;4185;41.506;24.938;2022-10-31T13:18:27;93943.16;;;33.12;19.99
8294;BME280;4185;41.506;24.938;2022-10-31T13:20:57;93954.69;;;38.38;16.53
8294;BME280;4185;41.506;24.938;2022-10-31T13:23:30;93945.59;;;41.57;14.26
8294;BME280;4185;41.506;24.938;2022-10-31T13:26:00;93946.59;;;42.49;12.89
8294;BME280;4185;41.506;24.938;2022-10-31T13:28:33;93944.94;;;42.36;12.22
8294;BME280;4185;41.506;24.938;2022-10-31T13:31:02;93953.06;;;42.95;12.61
8294;BME280;4185;41.506;24.938;2022-10-31T13:33:31;93953.56;;;43.27;11.27
8294;BME280;4185;41.506;24.938;2022-10-31T13:36:14;93956.88;;;43.12;11.79
8294;BME280;4185;41.506;24.938;2022-10-31T13:38:48;93956.03;;;43.03;11.60